sensor_id;sensor_type;location;lat;lon;timestamp;P1;durP1;ratioP1;P2;durP2;ratioP2
44189;SDS011;29856;52.144;5.430;2022-12-05T00:01:38;43.00;;;24.88;;
44189;SDS011;29856;52.144;5.430;2022-12-05T00:04:06;49.63;;;27.65;;
44189;SDS011;29856;52.144;5.430;2022-12-05T00:06:37;45.50;;;26.38;;
44189;SDS011;29856;52.144;5.430;2022-12-05T00:09:04;44.63;;;25.70;;
44189;SDS011;29856;52.144;5.430;2022-12-05T00:11:31;47.33;;;26.05;;
44189;SDS011;29856;52.144;5.430;2022-12-05T00:13:59;44.58;;;25.25;;
44189;SDS011;29856;52.144;5.430;2022-12-05T00:16:27;46.80;;;26.67;;
44189;SDS011;29856;52.144;5.430;2022-12-05T00:18:55;48.97;;;26.80;;
44189;SDS011;29856;52.144;5.430;2022-12-05T00:21:24;47.17;;;26.05;;
44189;SDS011;29856;52.144;5.430;2022-12-05T00:23:50;46.13;;;26.08;;
44189;SDS011;29856;52.144;5.430;2022-12-05T00:26:17;47.85;;;27.75;;
44189;SDS011;29856;52.144;5.430;2022-12-05T00:28:43;43.67;;;25.58;;
44189;SDS011;29856;52.144;5.430;2022-12-05T00:31:11;44.03;;;25.27;;
44189;SDS011;29856;52.144;5.430;2022-12-05T00:33:38;47.15;;;27.80;;
44189;SDS011;29856;52.144;5.430;2022-12-05T00:36:14;47.45;;;26.63;;
44189;SDS011;29856;52.144;5.430;2022-12-05T00:38:41;45.35;;;26.33;;
44189;SDS011;29856;52.144;5.430;2022-12-05T00:41:14;45.25;;;26.20;;
44189;SDS011;29856;52.144;5.430;2022-12-05T00:43:41;45.97;;;27.27;;
44189;SDS011;29856;52.144;5.430;2022-12-05T00:46:08;45.38;;;25.95;;
44189;SDS011;29856;52.144;5.430;2022-12-05T00:48:39;47.40;;;27.23;;
44189;SDS011;29856;52.144;5.430;2022-12-05T00:51:18;44.78;;;25.70;;
44189;SDS011;29856;52.144;5.430;2022-12-05T00:53:46;47.15;;;27.50;;
44189;SDS011;29856;52.144;5.430;2022-12-05T00:56:17;47.10;;;26.25;;
44189;SDS011;29856;52.144;5.430;2022-12-05T00:58:45;46.22;;;27.73;;
44189;SDS011;29856;52.144;5.430;2022-12-05T01:01:13;45.70;;;26.55;;
44189;SDS011;29856;52.144;5.430;2022-12-05T01:03:40;46.33;;;26.25;;
44189;SDS011;29856;52.144;5.430;2022-12-05T01:06:06;50.17;;;27.08;;
44189;SDS011;29856;52.144;5.430;2022-12-05T01:08:33;43.15;;;25.13;;
44189;SDS011;29856;52.144;5.430;2022-12-05T01:10:59;45.08;;;26.95;;
44189;SDS011;29856;52.144;5.430;2022-12-05T01:13:25;48.47;;;28.10;;
44189;SDS011;29856;52.144;5.430;2022-12-05T01:15:51;46.97;;;27.33;;
44189;SDS011;29856;52.144;5.430;2022-12-05T01:18:18;52.50;;;29.63;;
44189;SDS011;29856;52.144;5.430;2022-12-05T01:20:45;52.33;;;28.60;;
44189;SDS011;29856;52.144;5.430;2022-12-05T01:23:11;47.95;;;27.67;;
44189;SDS011;29856;52.144;5.430;2022-12-05T01:25:40;54.30;;;29.70;;
44189;SDS011;29856;52.144;5.430;2022-12-05T01:28:07;51.40;;;28.77;;
44189;SDS011;29856;52.144;5.430;2022-12-05T01:30:35;46.20;;;28.65;;
44189;SDS011;29856;52.144;5.430;2022-12-05T01:33:02;51.80;;;29.73;;
44189;SDS011;29856;52.144;5.430;2022-12-05T01:35:30;45.78;;;27.58;;
44189;SDS011;29856;52.144;5.430;2022-12-05T01:37:59;51.17;;;29.25;;
44189;SDS011;29856;52.144;5.430;2022-12-05T01:40:24;49.22;;;27.67;;
44189;SDS011;29856;52.144;5.430;2022-12-05T01:42:50;52.17;;;28.50;;
44189;SDS011;29856;52.144;5.430;2022-12-05T01:45:17;47.53;;;27.83;;
44189;SDS011;29856;52.144;5.430;2022-12-05T01:47:48;45.42;;;26.88;;
44189;SDS011;29856;52.144;5.430;2022-12-05T01:50:13;48.90;;;28.77;;
44189;SDS011;29856;52.144;5.430;2022-12-05T01:52:39;46.13;;;28.67;;
44189;SDS011;29856;52.144;5.430;2022-12-05T01:55:06;46.90;;;27.90;;
44189;SDS011;29856;52.144;5.430;2022-12-05T01:57:35;49.97;;;27.05;;
44189;SDS011;29856;52.144;5.430;2022-12-05T02:00:04;45.08;;;27.10;;
44189;SDS011;29856;52.144;5.430;2022-12-05T02:02:34;49.30;;;28.58;;
44189;SDS011;29856;52.144;5.430;2022-12-05T02:05:01;41.38;;;25.77;;
44189;SDS011;29856;52.144;5.430;2022-12-05T02:07:30;46.55;;;26.85;;
44189;SDS011;29856;52.144;5.430;2022-12-05T02:09:57;43.97;;;26.88;;
44189;SDS011;29856;52.144;5.430;2022-12-05T02:12:22;48.00;;;27.48;;
44189;SDS011;29856;52.144;5.430;2022-12-05T02:20:33;46.05;;;27.40;;
44189;SDS011;29856;52.144;5.430;2022-12-05T02:28:43;48.00;;;26.92;;
44189;SDS011;29856;52.144;5.430;2022-12-05T02:31:21;38.92;;;24.33;;
44189;SDS011;29856;52.144;5.430;2022-12-05T02:39:29;42.92;;;25.52;;
44189;SDS011;29856;52.144;5.430;2022-12-05T02:42:04;45.42;;;26.92;;
44189;SDS011;29856;52.144;5.430;2022-12-05T02:44:43;43.35;;;25.73;;
44189;SDS011;29856;52.144;5.430;2022-12-05T02:47:16;47.83;;;27.60;;
44189;SDS011;29856;52.144;5.430;2022-12-05T02:49:46;46.67;;;25.60;;
44189;SDS011;29856;52.144;5.430;2022-12-05T02:52:13;44.38;;;25.92;;
44189;SDS011;29856;52.144;5.430;2022-12-05T02:54:42;38.55;;;24.70;;
44189;SDS011;29856;52.144;5.430;2022-12-05T02:57:10;46.35;;;25.90;;
44189;SDS011;29856;52.144;5.430;2022-12-05T02:59:37;44.28;;;25.48;;
44189;SDS011;29856;52.144;5.430;2022-12-05T03:02:03;38.53;;;23.95;;
44189;SDS011;29856;52.144;5.430;2022-12-05T03:04:28;39.92;;;23.73;;
44189;SDS011;29856;52.144;5.430;2022-12-05T03:09:36;39.15;;;23.65;;
44189;SDS011;29856;52.144;5.430;2022-12-05T03:12:12;40.47;;;23.02;;
44189;SDS011;29856;52.144;5.430;2022-12-05T03:14:49;36.83;;;23.00;;
44189;SDS011;29856;52.144;5.430;2022-12-05T03:17:21;38.60;;;24.08;;
44189;SDS011;29856;52.144;5.430;2022-12-05T03:19:56;43.03;;;26.10;;
44189;SDS011;29856;52.144;5.430;2022-12-05T03:25:19;35.83;;;22.08;;
44189;SDS011;29856;52.144;5.430;2022-12-05T03:27:51;44.20;;;24.10;;
44189;SDS011;29856;52.144;5.430;2022-12-05T03:30:21;40.10;;;23.48;;
44189;SDS011;29856;52.144;5.430;2022-12-05T03:32:56;42.97;;;22.83;;
44189;SDS011;29856;52.144;5.430;2022-12-05T03:38:18;37.75;;;23.63;;
44189;SDS011;29856;52.144;5.430;2022-12-05T03:40:52;41.15;;;22.70;;
44189;SDS011;29856;52.144;5.430;2022-12-05T03:43:46;36.90;;;22.48;;
44189;SDS011;29856;52.144;5.430;2022-12-05T03:46:16;40.20;;;21.63;;
44189;SDS011;29856;52.144;5.430;2022-12-05T03:48:53;34.60;;;21.60;;
44189;SDS011;29856;52.144;5.430;2022-12-05T03:51:27;39.45;;;24.48;;
44189;SDS011;29856;52.144;5.430;2022-12-05T03:54:01;35.60;;;21.75;;
44189;SDS011;29856;52.144;5.430;2022-12-05T03:56:38;37.28;;;22.15;;
44189;SDS011;29856;52.144;5.430;2022-12-05T03:59:15;37.83;;;22.27;;
44189;SDS011;29856;52.144;5.430;2022-12-05T04:01:54;40.65;;;24.48;;
44189;SDS011;29856;52.144;5.430;2022-12-05T04:04:25;38.75;;;22.45;;
44189;SDS011;29856;52.144;5.430;2022-12-05T04:06:57;36.90;;;23.08;;
44189;SDS011;29856;52.144;5.430;2022-12-05T04:09:39;41.63;;;23.60;;
44189;SDS011;29856;52.144;5.430;2022-12-05T04:12:10;36.83;;;23.42;;
44189;SDS011;29856;52.144;5.430;2022-12-05T04:14:42;36.08;;;21.92;;
44189;SDS011;29856;52.144;5.430;2022-12-05T04:17:20;35.47;;;22.83;;
44189;SDS011;29856;52.144;5.430;2022-12-05T04:20:13;32.97;;;21.77;;
44189;SDS011;29856;52.144;5.430;2022-12-05T04:22:58;39.60;;;23.02;;
44189;SDS011;29856;52.144;5.430;2022-12-05T04:25:24;35.15;;;22.90;;
44189;SDS011;29856;52.144;5.430;2022-12-05T04:31:17;40.35;;;24.38;;
44189;SDS011;29856;52.144;5.430;2022-12-05T04:33:48;37.85;;;23.17;;
44189;SDS011;29856;52.144;5.430;2022-12-05T04:36:24;40.17;;;23.00;;
44189;SDS011;29856;52.144;5.430;2022-12-05T04:41:45;37.72;;;21.90;;
44189;SDS011;29856;52.144;5.430;2022-12-05T04:44:20;40.75;;;23.60;;
44189;SDS011;29856;52.144;5.430;2022-12-05T04:46:49;33.80;;;22.35;;
44189;SDS011;29856;52.144;5.430;2022-12-05T04:49:18;38.95;;;21.85;;
44189;SDS011;29856;52.144;5.430;2022-12-05T04:51:47;38.75;;;22.10;;
44189;SDS011;29856;52.144;5.430;2022-12-05T04:54:19;37.63;;;22.83;;
44189;SDS011;29856;52.144;5.430;2022-12-05T04:56:48;39.15;;;23.75;;
44189;SDS011;29856;52.144;5.430;2022-12-05T04:59:16;37.05;;;22.85;;
44189;SDS011;29856;52.144;5.430;2022-12-05T05:01:43;37.38;;;23.08;;
44189;SDS011;29856;52.144;5.430;2022-12-05T05:04:46;36.58;;;22.95;;
44189;SDS011;29856;52.144;5.430;2022-12-05T05:07:09;33.15;;;22.80;;
44189;SDS011;29856;52.144;5.430;2022-12-05T05:09:37;35.78;;;23.35;;
44189;SDS011;29856;52.144;5.430;2022-12-05T05:12:03;39.17;;;23.80;;
44189;SDS011;29856;52.144;5.430;2022-12-05T05:14:29;35.10;;;23.05;;
44189;SDS011;29856;52.144;5.430;2022-12-05T05:16:54;40.40;;;24.02;;
44189;SDS011;29856;52.144;5.430;2022-12-05T05:19:21;35.67;;;22.52;;
44189;SDS011;29856;52.144;5.430;2022-12-05T05:21:46;36.95;;;24.67;;
44189;SDS011;29856;52.144;5.430;2022-12-05T05:24:12;35.22;;;23.52;;
44189;SDS011;29856;52.144;5.430;2022-12-05T05:26:38;37.95;;;23.95;;
44189;SDS011;29856;52.144;5.430;2022-12-05T05:29:05;35.70;;;22.45;;
44189;SDS011;29856;52.144;5.430;2022-12-05T05:31:31;39.38;;;25.42;;
44189;SDS011;29856;52.144;5.430;2022-12-05T05:33:57;35.53;;;22.27;;
44189;SDS011;29856;52.144;5.430;2022-12-05T05:36:25;36.40;;;22.75;;
44189;SDS011;29856;52.144;5.430;2022-12-05T05:38:52;40.30;;;24.60;;
44189;SDS011;29856;52.144;5.430;2022-12-05T05:41:20;38.67;;;24.17;;
44189;SDS011;29856;52.144;5.430;2022-12-05T05:43:47;38.75;;;23.77;;
44189;SDS011;29856;52.144;5.430;2022-12-05T05:46:13;40.72;;;24.23;;
44189;SDS011;29856;52.144;5.430;2022-12-05T05:48:41;41.20;;;25.08;;
44189;SDS011;29856;52.144;5.430;2022-12-05T05:51:07;43.60;;;25.70;;
44189;SDS011;29856;52.144;5.430;2022-12-05T05:53:37;41.65;;;25.92;;
44189;SDS011;29856;52.144;5.430;2022-12-05T05:56:03;34.88;;;22.05;;
44189;SDS011;29856;52.144;5.430;2022-12-05T05:58:30;41.50;;;22.15;;
44189;SDS011;29856;52.144;5.430;2022-12-05T06:01:05;37.83;;;22.73;;
44189;SDS011;29856;52.144;5.430;2022-12-05T06:03:36;41.10;;;23.55;;
44189;SDS011;29856;52.144;5.430;2022-12-05T06:06:03;42.47;;;25.00;;
44189;SDS011;29856;52.144;5.430;2022-12-05T06:08:31;47.35;;;25.20;;
44189;SDS011;29856;52.144;5.430;2022-12-05T06:10:58;38.08;;;22.20;;
44189;SDS011;29856;52.144;5.430;2022-12-05T06:13:24;43.25;;;24.50;;
44189;SDS011;29856;52.144;5.430;2022-12-05T06:15:51;39.95;;;23.75;;
44189;SDS011;29856;52.144;5.430;2022-12-05T06:18:16;46.67;;;24.23;;
44189;SDS011;29856;52.144;5.430;2022-12-05T06:20:50;38.72;;;23.65;;
44189;SDS011;29856;52.144;5.430;2022-12-05T06:23:16;39.22;;;22.58;;
44189;SDS011;29856;52.144;5.430;2022-12-05T06:25:46;41.70;;;23.20;;
44189;SDS011;29856;52.144;5.430;2022-12-05T06:28:16;40.72;;;23.58;;
44189;SDS011;29856;52.144;5.430;2022-12-05T06:30:42;36.30;;;21.48;;
44189;SDS011;29856;52.144;5.430;2022-12-05T06:33:08;40.80;;;22.42;;
44189;SDS011;29856;52.144;5.430;2022-12-05T06:35:33;34.95;;;21.60;;
44189;SDS011;29856;52.144;5.430;2022-12-05T06:37:59;43.65;;;24.50;;
44189;SDS011;29856;52.144;5.430;2022-12-05T06:40:24;40.55;;;23.15;;
44189;SDS011;29856;52.144;5.430;2022-12-05T06:42:50;41.90;;;23.58;;
44189;SDS011;29856;52.144;5.430;2022-12-05T06:45:15;45.95;;;24.20;;
44189;SDS011;29856;52.144;5.430;2022-12-05T06:47:41;45.88;;;24.17;;
44189;SDS011;29856;52.144;5.430;2022-12-05T06:50:06;41.05;;;21.40;;
44189;SDS011;29856;52.144;5.430;2022-12-05T06:52:32;53.90;;;25.17;;
44189;SDS011;29856;52.144;5.430;2022-12-05T06:54:59;48.70;;;24.35;;
44189;SDS011;29856;52.144;5.430;2022-12-05T06:57:26;44.17;;;24.20;;
44189;SDS011;29856;52.144;5.430;2022-12-05T06:59:52;44.72;;;23.25;;
44189;SDS011;29856;52.144;5.430;2022-12-05T07:02:17;49.45;;;24.00;;
44189;SDS011;29856;52.144;5.430;2022-12-05T07:04:43;41.83;;;23.35;;
44189;SDS011;29856;52.144;5.430;2022-12-05T07:07:08;47.30;;;23.67;;
44189;SDS011;29856;52.144;5.430;2022-12-05T07:09:34;45.38;;;25.00;;
44189;SDS011;29856;52.144;5.430;2022-12-05T07:11:59;49.25;;;23.77;;
44189;SDS011;29856;52.144;5.430;2022-12-05T07:14:25;45.40;;;24.48;;
44189;SDS011;29856;52.144;5.430;2022-12-05T07:16:50;40.25;;;22.80;;
44189;SDS011;29856;52.144;5.430;2022-12-05T07:19:15;49.83;;;24.77;;
44189;SDS011;29856;52.144;5.430;2022-12-05T07:21:41;42.88;;;22.80;;
44189;SDS011;29856;52.144;5.430;2022-12-05T07:24:06;44.45;;;23.95;;
44189;SDS011;29856;52.144;5.430;2022-12-05T07:26:32;45.30;;;23.65;;
44189;SDS011;29856;52.144;5.430;2022-12-05T07:28:57;42.58;;;22.95;;
44189;SDS011;29856;52.144;5.430;2022-12-05T07:31:23;40.63;;;22.33;;
44189;SDS011;29856;52.144;5.430;2022-12-05T07:33:48;41.08;;;22.75;;
44189;SDS011;29856;52.144;5.430;2022-12-05T07:36:15;41.25;;;22.92;;
44189;SDS011;29856;52.144;5.430;2022-12-05T07:38:42;38.45;;;21.25;;
44189;SDS011;29856;52.144;5.430;2022-12-05T07:41:41;36.42;;;22.10;;
44189;SDS011;29856;52.144;5.430;2022-12-05T07:44:00;38.42;;;22.98;;
44189;SDS011;29856;52.144;5.430;2022-12-05T07:46:26;35.88;;;20.13;;
44189;SDS011;29856;52.144;5.430;2022-12-05T07:48:52;39.65;;;21.20;;
44189;SDS011;29856;52.144;5.430;2022-12-05T07:51:19;37.15;;;21.92;;
44189;SDS011;29856;52.144;5.430;2022-12-05T07:53:45;36.22;;;20.85;;
44189;SDS011;29856;52.144;5.430;2022-12-05T07:56:12;35.10;;;21.15;;
44189;SDS011;29856;52.144;5.430;2022-12-05T07:58:39;37.45;;;20.88;;
44189;SDS011;29856;52.144;5.430;2022-12-05T08:01:05;37.35;;;20.98;;
44189;SDS011;29856;52.144;5.430;2022-12-05T08:03:32;33.17;;;20.10;;
44189;SDS011;29856;52.144;5.430;2022-12-05T08:06:01;34.72;;;20.83;;
44189;SDS011;29856;52.144;5.430;2022-12-05T08:08:31;35.22;;;20.77;;
44189;SDS011;29856;52.144;5.430;2022-12-05T08:11:01;33.20;;;20.23;;
44189;SDS011;29856;52.144;5.430;2022-12-05T08:13:30;31.13;;;19.58;;
44189;SDS011;29856;52.144;5.430;2022-12-05T08:16:00;31.88;;;19.92;;
44189;SDS011;29856;52.144;5.430;2022-12-05T08:18:27;31.60;;;19.83;;
44189;SDS011;29856;52.144;5.430;2022-12-05T08:20:52;30.60;;;20.05;;
44189;SDS011;29856;52.144;5.430;2022-12-05T08:23:17;34.67;;;20.13;;
44189;SDS011;29856;52.144;5.430;2022-12-05T08:25:43;28.83;;;18.65;;
44189;SDS011;29856;52.144;5.430;2022-12-05T08:28:08;29.33;;;18.77;;
44189;SDS011;29856;52.144;5.430;2022-12-05T08:30:34;30.63;;;18.38;;
44189;SDS011;29856;52.144;5.430;2022-12-05T08:32:59;29.45;;;19.20;;
44189;SDS011;29856;52.144;5.430;2022-12-05T08:35:25;28.00;;;17.92;;
44189;SDS011;29856;52.144;5.430;2022-12-05T08:37:50;26.75;;;17.60;;
44189;SDS011;29856;52.144;5.430;2022-12-05T08:40:16;24.90;;;17.75;;
44189;SDS011;29856;52.144;5.430;2022-12-05T08:42:41;26.17;;;17.45;;
44189;SDS011;29856;52.144;5.430;2022-12-05T08:45:07;27.52;;;18.48;;
44189;SDS011;29856;52.144;5.430;2022-12-05T08:47:32;27.85;;;17.55;;
44189;SDS011;29856;52.144;5.430;2022-12-05T08:49:58;27.80;;;17.95;;
44189;SDS011;29856;52.144;5.430;2022-12-05T08:52:23;25.38;;;17.65;;
44189;SDS011;29856;52.144;5.430;2022-12-05T08:54:49;24.80;;;16.50;;
44189;SDS011;29856;52.144;5.430;2022-12-05T08:57:14;25.52;;;17.33;;
44189;SDS011;29856;52.144;5.430;2022-12-05T08:59:40;23.98;;;16.00;;
44189;SDS011;29856;52.144;5.430;2022-12-05T09:02:05;27.60;;;16.25;;
44189;SDS011;29856;52.144;5.430;2022-12-05T09:04:32;24.13;;;15.68;;
44189;SDS011;29856;52.144;5.430;2022-12-05T09:07:00;23.08;;;15.65;;
44189;SDS011;29856;52.144;5.430;2022-12-05T09:09:26;22.80;;;15.45;;
44189;SDS011;29856;52.144;5.430;2022-12-05T09:11:51;21.05;;;14.35;;
44189;SDS011;29856;52.144;5.430;2022-12-05T09:14:17;23.17;;;14.10;;
44189;SDS011;29856;52.144;5.430;2022-12-05T09:16:43;18.50;;;13.40;;
44189;SDS011;29856;52.144;5.430;2022-12-05T09:19:11;17.20;;;13.25;;
44189;SDS011;29856;52.144;5.430;2022-12-05T09:21:39;18.80;;;13.43;;
44189;SDS011;29856;52.144;5.430;2022-12-05T09:24:05;18.60;;;12.20;;
44189;SDS011;29856;52.144;5.430;2022-12-05T09:26:30;17.08;;;12.75;;
44189;SDS011;29856;52.144;5.430;2022-12-05T09:28:56;16.77;;;11.80;;
44189;SDS011;29856;52.144;5.430;2022-12-05T09:31:22;15.57;;;12.25;;
44189;SDS011;29856;52.144;5.430;2022-12-05T09:33:48;16.73;;;11.65;;
44189;SDS011;29856;52.144;5.430;2022-12-05T09:36:19;15.75;;;11.88;;
44189;SDS011;29856;52.144;5.430;2022-12-05T09:38:49;17.23;;;11.75;;
44189;SDS011;29856;52.144;5.430;2022-12-05T09:44:16;13.00;;;10.98;;
44189;SDS011;29856;52.144;5.430;2022-12-05T09:46:54;14.52;;;11.15;;
44189;SDS011;29856;52.144;5.430;2022-12-05T09:49:24;14.93;;;11.50;;
44189;SDS011;29856;52.144;5.430;2022-12-05T09:51:50;13.25;;;10.65;;
44189;SDS011;29856;52.144;5.430;2022-12-05T09:54:18;12.95;;;11.05;;
44189;SDS011;29856;52.144;5.430;2022-12-05T09:56:47;11.57;;;9.88;;
44189;SDS011;29856;52.144;5.430;2022-12-05T09:59:14;13.13;;;10.52;;
44189;SDS011;29856;52.144;5.430;2022-12-05T10:01:40;13.48;;;10.95;;
44189;SDS011;29856;52.144;5.430;2022-12-05T10:04:16;14.40;;;10.60;;
44189;SDS011;29856;52.144;5.430;2022-12-05T10:12:29;15.88;;;11.20;;
44189;SDS011;29856;52.144;5.430;2022-12-05T10:15:16;12.68;;;10.55;;
44189;SDS011;29856;52.144;5.430;2022-12-05T10:17:45;12.82;;;9.75;;
44189;SDS011;29856;52.144;5.430;2022-12-05T10:20:36;11.68;;;9.88;;
44189;SDS011;29856;52.144;5.430;2022-12-05T10:23:07;11.88;;;9.68;;
44189;SDS011;29856;52.144;5.430;2022-12-05T10:25:42;12.02;;;9.63;;
44189;SDS011;29856;52.144;5.430;2022-12-05T10:28:15;10.95;;;9.25;;
44189;SDS011;29856;52.144;5.430;2022-12-05T10:30:58;11.48;;;8.77;;
44189;SDS011;29856;52.144;5.430;2022-12-05T10:33:32;8.98;;;7.43;;
44189;SDS011;29856;52.144;5.430;2022-12-05T10:36:05;10.52;;;8.60;;
44189;SDS011;29856;52.144;5.430;2022-12-05T10:38:34;8.90;;;7.05;;
44189;SDS011;29856;52.144;5.430;2022-12-05T10:41:04;7.63;;;6.55;;
44189;SDS011;29856;52.144;5.430;2022-12-05T10:43:32;6.95;;;6.00;;
44189;SDS011;29856;52.144;5.430;2022-12-05T10:45:59;6.82;;;6.13;;
44189;SDS011;29856;52.144;5.430;2022-12-05T10:48:26;7.82;;;5.72;;
44189;SDS011;29856;52.144;5.430;2022-12-05T10:50:53;6.30;;;5.70;;
44189;SDS011;29856;52.144;5.430;2022-12-05T10:53:24;7.10;;;5.30;;
44189;SDS011;29856;52.144;5.430;2022-12-05T10:55:53;6.18;;;4.95;;
44189;SDS011;29856;52.144;5.430;2022-12-05T10:58:20;7.38;;;5.22;;
44189;SDS011;29856;52.144;5.430;2022-12-05T11:00:50;8.15;;;5.38;;
44189;SDS011;29856;52.144;5.430;2022-12-05T11:03:21;6.55;;;5.18;;
44189;SDS011;29856;52.144;5.430;2022-12-05T11:06:36;5.85;;;5.13;;
44189;SDS011;29856;52.144;5.430;2022-12-05T11:08:41;6.88;;;5.75;;
44189;SDS011;29856;52.144;5.430;2022-12-05T11:13:53;6.82;;;6.03;;
44189;SDS011;29856;52.144;5.430;2022-12-05T11:16:30;6.93;;;5.70;;
44189;SDS011;29856;52.144;5.430;2022-12-05T11:21:45;8.73;;;6.10;;
44189;SDS011;29856;52.144;5.430;2022-12-05T11:26:45;7.33;;;5.53;;
44189;SDS011;29856;52.144;5.430;2022-12-05T11:32:07;8.23;;;5.13;;
44189;SDS011;29856;52.144;5.430;2022-12-05T11:37:43;8.30;;;5.85;;
44189;SDS011;29856;52.144;5.430;2022-12-05T11:40:24;10.00;;;5.65;;
44189;SDS011;29856;52.144;5.430;2022-12-05T11:49:08;10.00;;;5.88;;
44189;SDS011;29856;52.144;5.430;2022-12-05T11:57:27;9.68;;;5.30;;
44189;SDS011;29856;52.144;5.430;2022-12-05T12:00:22;6.80;;;4.90;;
44189;SDS011;29856;52.144;5.430;2022-12-05T12:03:14;8.55;;;5.68;;
44189;SDS011;29856;52.144;5.430;2022-12-05T12:08:28;7.35;;;6.10;;
44189;SDS011;29856;52.144;5.430;2022-12-05T12:11:10;6.38;;;5.30;;
44189;SDS011;29856;52.144;5.430;2022-12-05T12:16:41;13.25;;;5.70;;
44189;SDS011;29856;52.144;5.430;2022-12-05T12:24:59;7.32;;;5.50;;
44189;SDS011;29856;52.144;5.430;2022-12-05T12:27:50;7.80;;;5.13;;
44189;SDS011;29856;52.144;5.430;2022-12-05T12:30:27;6.65;;;4.65;;
44189;SDS011;29856;52.144;5.430;2022-12-05T12:35:53;9.63;;;5.95;;
44189;SDS011;29856;52.144;5.430;2022-12-05T12:41:22;9.50;;;5.75;;
44189;SDS011;29856;52.144;5.430;2022-12-05T12:43:58;7.13;;;4.80;;
44189;SDS011;29856;52.144;5.430;2022-12-05T12:46:42;6.80;;;5.20;;
44189;SDS011;29856;52.144;5.430;2022-12-05T12:51:50;6.57;;;5.25;;
44189;SDS011;29856;52.144;5.430;2022-12-05T12:57:26;7.22;;;5.15;;
44189;SDS011;29856;52.144;5.430;2022-12-05T13:02:48;6.20;;;4.80;;
44189;SDS011;29856;52.144;5.430;2022-12-05T13:05:38;6.32;;;5.07;;
44189;SDS011;29856;52.144;5.430;2022-12-05T13:08:34;6.68;;;4.63;;
44189;SDS011;29856;52.144;5.430;2022-12-05T13:11:08;6.03;;;4.97;;
44189;SDS011;29856;52.144;5.430;2022-12-05T13:13:41;6.82;;;5.05;;
44189;SDS011;29856;52.144;5.430;2022-12-05T13:16:15;9.05;;;5.22;;
44189;SDS011;29856;52.144;5.430;2022-12-05T13:18:56;8.32;;;5.22;;
44189;SDS011;29856;52.144;5.430;2022-12-05T13:21:22;8.57;;;5.57;;
44189;SDS011;29856;52.144;5.430;2022-12-05T13:23:49;5.65;;;4.57;;
44189;SDS011;29856;52.144;5.430;2022-12-05T13:26:17;6.93;;;5.60;;
44189;SDS011;29856;52.144;5.430;2022-12-05T13:28:48;8.65;;;5.63;;
44189;SDS011;29856;52.144;5.430;2022-12-05T13:31:19;6.68;;;5.32;;
44189;SDS011;29856;52.144;5.430;2022-12-05T13:36:51;10.52;;;5.47;;
44189;SDS011;29856;52.144;5.430;2022-12-05T13:39:18;7.25;;;5.10;;
44189;SDS011;29856;52.144;5.430;2022-12-05T13:41:55;8.32;;;5.22;;
44189;SDS011;29856;52.144;5.430;2022-12-05T13:46:55;9.50;;;5.30;;
44189;SDS011;29856;52.144;5.430;2022-12-05T13:49:31;8.68;;;5.07;;
44189;SDS011;29856;52.144;5.430;2022-12-05T13:52:12;6.30;;;4.70;;
44189;SDS011;29856;52.144;5.430;2022-12-05T13:54:45;6.10;;;4.75;;
44189;SDS011;29856;52.144;5.430;2022-12-05T14:07:48;7.55;;;4.95;;
44189;SDS011;29856;52.144;5.430;2022-12-05T14:15:27;10.38;;;5.32;;
44189;SDS011;29856;52.144;5.430;2022-12-05T14:17:58;6.43;;;4.07;;
44189;SDS011;29856;52.144;5.430;2022-12-05T14:20:46;8.38;;;5.00;;
44189;SDS011;29856;52.144;5.430;2022-12-05T14:34:04;7.35;;;5.25;;
44189;SDS011;29856;52.144;5.430;2022-12-05T14:39:32;7.35;;;5.50;;
44189;SDS011;29856;52.144;5.430;2022-12-05T14:42:25;7.80;;;5.22;;
44189;SDS011;29856;52.144;5.430;2022-12-05T14:44:52;8.70;;;6.15;;
44189;SDS011;29856;52.144;5.430;2022-12-05T14:47:24;8.38;;;6.05;;
44189;SDS011;29856;52.144;5.430;2022-12-05T14:49:54;8.05;;;5.72;;
44189;SDS011;29856;52.144;5.430;2022-12-05T14:52:23;9.93;;;5.78;;
44189;SDS011;29856;52.144;5.430;2022-12-05T14:54:56;9.05;;;5.82;;
44189;SDS011;29856;52.144;5.430;2022-12-05T14:57:27;8.93;;;5.35;;
44189;SDS011;29856;52.144;5.430;2022-12-05T15:02:22;9.80;;;5.80;;
44189;SDS011;29856;52.144;5.430;2022-12-05T15:04:52;8.50;;;5.20;;
44189;SDS011;29856;52.144;5.430;2022-12-05T15:07:30;8.75;;;6.05;;
44189;SDS011;29856;52.144;5.430;2022-12-05T15:15:18;9.23;;;5.70;;
44189;SDS011;29856;52.144;5.430;2022-12-05T15:18:08;10.02;;;6.15;;
44189;SDS011;29856;52.144;5.430;2022-12-05T15:20:51;8.95;;;5.40;;
44189;SDS011;29856;52.144;5.430;2022-12-05T15:31:37;10.55;;;6.60;;
44189;SDS011;29856;52.144;5.430;2022-12-05T15:34:13;10.63;;;5.47;;
44189;SDS011;29856;52.144;5.430;2022-12-05T15:36:45;10.65;;;6.75;;
44189;SDS011;29856;52.144;5.430;2022-12-05T15:39:17;9.85;;;6.30;;
44189;SDS011;29856;52.144;5.430;2022-12-05T15:41:45;9.90;;;5.93;;
44189;SDS011;29856;52.144;5.430;2022-12-05T15:44:11;9.07;;;5.53;;
44189;SDS011;29856;52.144;5.430;2022-12-05T15:46:36;9.30;;;5.78;;
44189;SDS011;29856;52.144;5.430;2022-12-05T15:49:14;12.55;;;6.22;;
44189;SDS011;29856;52.144;5.430;2022-12-05T15:51:51;9.88;;;6.95;;
44189;SDS011;29856;52.144;5.430;2022-12-05T15:54:28;8.48;;;5.78;;
44189;SDS011;29856;52.144;5.430;2022-12-05T15:59:32;9.23;;;5.53;;
44189;SDS011;29856;52.144;5.430;2022-12-05T16:02:08;7.85;;;4.32;;
44189;SDS011;29856;52.144;5.430;2022-12-05T16:04:51;7.47;;;4.82;;
44189;SDS011;29856;52.144;5.430;2022-12-05T16:07:20;8.45;;;5.38;;
44189;SDS011;29856;52.144;5.430;2022-12-05T16:09:48;8.13;;;5.32;;
44189;SDS011;29856;52.144;5.430;2022-12-05T16:12:33;6.82;;;4.53;;
44189;SDS011;29856;52.144;5.430;2022-12-05T16:15:04;5.05;;;3.47;;
44189;SDS011;29856;52.144;5.430;2022-12-05T16:17:39;4.55;;;3.60;;
44189;SDS011;29856;52.144;5.430;2022-12-05T16:22:44;5.60;;;4.10;;
44189;SDS011;29856;52.144;5.430;2022-12-05T16:25:16;9.52;;;4.18;;
44189;SDS011;29856;52.144;5.430;2022-12-05T16:27:56;7.72;;;3.75;;
44189;SDS011;29856;52.144;5.430;2022-12-05T16:30:26;6.95;;;3.83;;
44189;SDS011;29856;52.144;5.430;2022-12-05T16:33:00;6.45;;;4.10;;
44189;SDS011;29856;52.144;5.430;2022-12-05T16:35:47;7.50;;;4.60;;
44189;SDS011;29856;52.144;5.430;2022-12-05T16:45:49;6.72;;;5.30;;
44189;SDS011;29856;52.144;5.430;2022-12-05T16:48:23;6.35;;;5.32;;
44189;SDS011;29856;52.144;5.430;2022-12-05T16:54:03;8.25;;;4.15;;
44189;SDS011;29856;52.144;5.430;2022-12-05T16:56:29;7.97;;;4.20;;
44189;SDS011;29856;52.144;5.430;2022-12-05T16:58:57;7.00;;;4.50;;
44189;SDS011;29856;52.144;5.430;2022-12-05T17:01:27;7.40;;;5.00;;
44189;SDS011;29856;52.144;5.430;2022-12-05T17:03:53;7.03;;;4.70;;
44189;SDS011;29856;52.144;5.430;2022-12-05T17:06:19;6.60;;;5.05;;
44189;SDS011;29856;52.144;5.430;2022-12-05T17:08:46;6.22;;;4.40;;
44189;SDS011;29856;52.144;5.430;2022-12-05T17:11:16;10.65;;;6.55;;
44189;SDS011;29856;52.144;5.430;2022-12-05T17:13:46;24.35;;;15.30;;
44189;SDS011;29856;52.144;5.430;2022-12-05T17:16:13;5.32;;;3.67;;
44189;SDS011;29856;52.144;5.430;2022-12-05T17:18:39;12.25;;;6.03;;
44189;SDS011;29856;52.144;5.430;2022-12-05T17:21:05;5.22;;;3.67;;
44189;SDS011;29856;52.144;5.430;2022-12-05T17:23:34;10.75;;;7.45;;
44189;SDS011;29856;52.144;5.430;2022-12-05T17:25:59;5.57;;;4.20;;
44189;SDS011;29856;52.144;5.430;2022-12-05T17:28:25;11.05;;;5.05;;